sensor_id;sensor_type;location;lat;lon;timestamp;pressure;altitude;pressure_sealevel;temperature;humidity
57442;BME280;43284;47.042;15.498;2023-04-28T00:00:01;97487.13;;;9.11;64.92
57442;BME280;43284;47.042;15.498;2023-04-28T00:02:29;97490.75;;;9.06;65.34
57442;BME280;43284;47.042;15.498;2023-04-28T00:04:54;97489.84;;;9.07;65.39
57442;BME280;43284;47.042;15.498;2023-04-28T00:07:20;97496.75;;;9.08;65.07
57442;BME280;43284;47.042;15.498;2023-04-28T00:09:45;97496.88;;;9.05;65.22
57442;BME280;43284;47.042;15.498;2023-04-28T00:12:11;97484.88;;;9.01;63.27
57442;BME280;43284;47.042;15.498;2023-04-28T00:14:36;97479.56;;;9.03;64.74
57442;BME280;43284;47.042;15.498;2023-04-28T00:17:02;97473.50;;;9.02;64.59
57442;BME280;43284;47.042;15.498;2023-04-28T00:19:27;97466.63;;;9.01;64.08
57442;BME280;43284;47.042;15.498;2023-04-28T00:21:53;97470.06;;;9.02;64.78
57442;BME280;43284;47.042;15.498;2023-04-28T00:24:19;97474.34;;;9.03;66.06
57442;BME280;43284;47.042;15.498;2023-04-28T00:26:44;97482.31;;;9.00;65.42
57442;BME280;43284;47.042;15.498;2023-04-28T00:29:10;97483.09;;;9.02;64.84
57442;BME280;43284;47.042;15.498;2023-04-28T00:31:35;97475.44;;;8.97;64.84
57442;BME280;43284;47.042;15.498;2023-04-28T00:34:01;97475.19;;;8.81;65.90
57442;BME280;43284;47.042;15.498;2023-04-28T00:36:26;97465.97;;;8.71;65.73
57442;BME280;43284;47.042;15.498;2023-04-28T00:38:56;97465.31;;;8.66;65.40
57442;BME280;43284;47.042;15.498;2023-04-28T00:41:22;97467.22;;;8.61;65.97
57442;BME280;43284;47.042;15.498;2023-04-28T00:43:48;97464.03;;;8.53;65.49
57442;BME280;43284;47.042;15.498;2023-04-28T00:46:31;97470.31;;;8.47;65.47
57442;BME280;43284;47.042;15.498;2023-04-28T00:48:57;97469.00;;;8.34;66.64
57442;BME280;43284;47.042;15.498;2023-04-28T00:51:23;97473.47;;;8.30;65.76
57442;BME280;43284;47.042;15.498;2023-04-28T00:53:49;97477.38;;;8.17;65.67
57442;BME280;43284;47.042;15.498;2023-04-28T00:56:15;97475.06;;;8.09;65.53
57442;BME280;43284;47.042;15.498;2023-04-28T00:58:41;97467.34;;;8.06;65.50
57442;BME280;43284;47.042;15.498;2023-04-28T01:01:09;97465.03;;;7.97;65.63
57442;BME280;43284;47.042;15.498;2023-04-28T01:03:37;97461.69;;;7.93;66.46
57442;BME280;43284;47.042;15.498;2023-04-28T01:06:07;97467.59;;;7.72;70.56
57442;BME280;43284;47.042;15.498;2023-04-28T01:08:34;97467.81;;;7.66;69.48
57442;BME280;43284;47.042;15.498;2023-04-28T01:11:00;97469.00;;;7.55;71.56
57442;BME280;43284;47.042;15.498;2023-04-28T01:13:26;97470.31;;;7.40;71.82
57442;BME280;43284;47.042;15.498;2023-04-28T01:15:56;97477.13;;;7.45;69.80
57442;BME280;43284;47.042;15.498;2023-04-28T01:18:22;97476.25;;;7.46;68.49
57442;BME280;43284;47.042;15.498;2023-04-28T01:20:48;97469.44;;;7.41;68.80
57442;BME280;43284;47.042;15.498;2023-04-28T01:23:15;97472.34;;;7.31;69.92
57442;BME280;43284;47.042;15.498;2023-04-28T01:25:41;97465.53;;;7.27;69.13
57442;BME280;43284;47.042;15.498;2023-04-28T01:28:08;97472.66;;;7.21;72.58
57442;BME280;43284;47.042;15.498;2023-04-28T01:30:34;97470.41;;;7.09;72.88
57442;BME280;43284;47.042;15.498;2023-04-28T01:33:00;97468.38;;;6.89;72.56
57442;BME280;43284;47.042;15.498;2023-04-28T01:35:26;97466.66;;;6.88;72.70
57442;BME280;43284;47.042;15.498;2023-04-28T01:37:51;97474.19;;;6.68;74.20
57442;BME280;43284;47.042;15.498;2023-04-28T01:40:17;97468.97;;;6.69;74.53
57442;BME280;43284;47.042;15.498;2023-04-28T01:42:42;97467.25;;;6.68;74.66
57442;BME280;43284;47.042;15.498;2023-04-28T01:45:08;97476.06;;;6.63;75.90
57442;BME280;43284;47.042;15.498;2023-04-28T01:47:34;97471.78;;;6.60;76.03
57442;BME280;43284;47.042;15.498;2023-04-28T01:50:00;97466.66;;;6.58;75.19
57442;BME280;43284;47.042;15.498;2023-04-28T01:52:26;97457.31;;;6.51;77.25
57442;BME280;43284;47.042;15.498;2023-04-28T01:54:52;97453.97;;;6.48;76.02
57442;BME280;43284;47.042;15.498;2023-04-28T01:57:18;97463.53;;;6.46;76.50
57442;BME280;43284;47.042;15.498;2023-04-28T01:59:44;97451.50;;;6.43;77.30
57442;BME280;43284;47.042;15.498;2023-04-28T02:02:09;97458.75;;;6.30;75.91
57442;BME280;43284;47.042;15.498;2023-04-28T02:04:37;97459.81;;;6.23;76.06
57442;BME280;43284;47.042;15.498;2023-04-28T02:07:03;97456.41;;;6.21;76.39
57442;BME280;43284;47.042;15.498;2023-04-28T02:09:28;97460.31;;;6.03;75.83
57442;BME280;43284;47.042;15.498;2023-04-28T02:11:54;97457.00;;;5.98;79.43
57442;BME280;43284;47.042;15.498;2023-04-28T02:14:19;97460.38;;;6.02;78.99
57442;BME280;43284;47.042;15.498;2023-04-28T02:16:45;97466.41;;;6.02;79.11
57442;BME280;43284;47.042;15.498;2023-04-28T02:19:10;97466.53;;;5.97;78.34
57442;BME280;43284;47.042;15.498;2023-04-28T02:21:36;97468.31;;;5.95;78.94
57442;BME280;43284;47.042;15.498;2023-04-28T02:24:01;97466.88;;;5.82;78.40
57442;BME280;43284;47.042;15.498;2023-04-28T02:26:27;97472.91;;;5.84;80.24
57442;BME280;43284;47.042;15.498;2023-04-28T02:28:52;97474.69;;;5.81;79.12
57442;BME280;43284;47.042;15.498;2023-04-28T02:31:18;97472.09;;;5.81;78.82
57442;BME280;43284;47.042;15.498;2023-04-28T02:33:44;97476.34;;;5.83;81.52
57442;BME280;43284;47.042;15.498;2023-04-28T02:36:09;97469.50;;;5.81;79.80
57442;BME280;43284;47.042;15.498;2023-04-28T02:38:35;97469.53;;;5.79;81.14
57442;BME280;43284;47.042;15.498;2023-04-28T02:41:05;97473.09;;;5.75;80.45
57442;BME280;43284;47.042;15.498;2023-04-28T02:43:33;97473.00;;;5.80;81.45
57442;BME280;43284;47.042;15.498;2023-04-28T02:45:59;97466.91;;;5.81;80.32
57442;BME280;43284;47.042;15.498;2023-04-28T02:48:25;97470.59;;;5.72;79.71
57442;BME280;43284;47.042;15.498;2023-04-28T02:50:51;97462.91;;;5.69;81.68
57442;BME280;43284;47.042;15.498;2023-04-28T02:53:21;97478.47;;;5.69;81.38
57442;BME280;43284;47.042;15.498;2023-04-28T02:55:47;97474.91;;;5.73;81.44
57442;BME280;43284;47.042;15.498;2023-04-28T02:58:12;97466.22;;;5.74;80.79
57442;BME280;43284;47.042;15.498;2023-04-28T03:00:38;97469.66;;;5.74;80.86
57442;BME280;43284;47.042;15.498;2023-04-28T03:03:04;97459.97;;;5.81;82.35
57442;BME280;43284;47.042;15.498;2023-04-28T03:05:29;97460.94;;;5.77;80.10
57442;BME280;43284;47.042;15.498;2023-04-28T03:07:55;97462.56;;;5.81;81.99
57442;BME280;43284;47.042;15.498;2023-04-28T03:10:21;97462.91;;;5.69;79.91
57442;BME280;43284;47.042;15.498;2023-04-28T03:12:46;97461.19;;;5.66;80.34
57442;BME280;43284;47.042;15.498;2023-04-28T03:15:12;97450.19;;;5.58;79.77
57442;BME280;43284;47.042;15.498;2023-04-28T03:17:37;97444.19;;;5.56;79.67
57442;BME280;43284;47.042;15.498;2023-04-28T03:20:07;97446.81;;;5.54;79.71
57442;BME280;43284;47.042;15.498;2023-04-28T03:22:33;97443.47;;;5.49;79.61
57442;BME280;43284;47.042;15.498;2023-04-28T03:24:59;97442.78;;;5.41;79.73
57442;BME280;43284;47.042;15.498;2023-04-28T03:27:25;97439.75;;;5.24;80.78
57442;BME280;43284;47.042;15.498;2023-04-28T03:29:51;97445.66;;;5.29;82.97
57442;BME280;43284;47.042;15.498;2023-04-28T03:32:16;97437.97;;;5.26;81.20
57442;BME280;43284;47.042;15.498;2023-04-28T03:34:44;97430.28;;;5.23;82.00
57442;BME280;43284;47.042;15.498;2023-04-28T03:37:10;97439.81;;;5.21;81.78
57442;BME280;43284;47.042;15.498;2023-04-28T03:39:35;97437.34;;;5.16;82.57
57442;BME280;43284;47.042;15.498;2023-04-28T03:42:01;97440.41;;;4.94;80.87
57442;BME280;43284;47.042;15.498;2023-04-28T03:44:26;97439.59;;;4.92;82.27
57442;BME280;43284;47.042;15.498;2023-04-28T03:46:52;97447.28;;;4.94;81.90
57442;BME280;43284;47.042;15.498;2023-04-28T03:49:18;97447.16;;;5.00;83.91
57442;BME280;43284;47.042;15.498;2023-04-28T03:51:43;97446.34;;;4.98;83.32
57442;BME280;43284;47.042;15.498;2023-04-28T03:54:09;97444.56;;;5.00;83.42
57442;BME280;43284;47.042;15.498;2023-04-28T03:56:34;97440.22;;;5.02;83.90
57442;BME280;43284;47.042;15.498;2023-04-28T03:59:00;97441.00;;;5.07;83.98
57442;BME280;43284;47.042;15.498;2023-04-28T04:01:26;97441.03;;;5.04;82.66
57442;BME280;43284;47.042;15.498;2023-04-28T04:03:51;97442.81;;;5.02;83.34
57442;BME280;43284;47.042;15.498;2023-04-28T04:06:17;97448.22;;;4.91;83.40
57442;BME280;43284;47.042;15.498;2023-04-28T04:08:42;97451.69;;;4.92;83.79
57442;BME280;43284;47.042;15.498;2023-04-28T04:11:08;97452.44;;;4.95;83.60
57442;BME280;43284;47.042;15.498;2023-04-28T04:13:34;97448.91;;;5.00;83.72
57442;BME280;43284;47.042;15.498;2023-04-28T04:15:59;97441.97;;;5.02;83.42
57442;BME280;43284;47.042;15.498;2023-04-28T04:18:25;97446.22;;;5.04;84.33
57442;BME280;43284;47.042;15.498;2023-04-28T04:20:51;97448.72;;;5.09;84.92
57442;BME280;43284;47.042;15.498;2023-04-28T04:23:20;97451.19;;;5.13;84.00
57442;BME280;43284;47.042;15.498;2023-04-28T04:25:48;97459.06;;;5.09;84.17
57442;BME280;43284;47.042;15.498;2023-04-28T04:28:14;97457.38;;;5.08;84.81
57442;BME280;43284;47.042;15.498;2023-04-28T04:30:40;97450.31;;;5.14;84.91
57442;BME280;43284;47.042;15.498;2023-04-28T04:33:06;97447.53;;;5.22;85.58
57442;BME280;43284;47.042;15.498;2023-04-28T04:35:32;97449.94;;;5.31;86.92
57442;BME280;43284;47.042;15.498;2023-04-28T04:37:59;97455.06;;;5.34;85.83
57442;BME280;43284;47.042;15.498;2023-04-28T04:40:25;97446.31;;;5.39;85.70
57442;BME280;43284;47.042;15.498;2023-04-28T04:42:51;97447.91;;;5.44;86.08
57442;BME280;43284;47.042;15.498;2023-04-28T04:45:16;97445.97;;;5.54;86.64
57442;BME280;43284;47.042;15.498;2023-04-28T04:47:42;97443.34;;;5.55;86.11
57442;BME280;43284;47.042;15.498;2023-04-28T04:50:08;97443.16;;;5.62;86.32
57442;BME280;43284;47.042;15.498;2023-04-28T04:52:33;97438.84;;;5.62;84.67
57442;BME280;43284;47.042;15.498;2023-04-28T04:54:59;97439.59;;;5.67;83.40
57442;BME280;43284;47.042;15.498;2023-04-28T04:57:24;97436.75;;;5.76;85.00
57442;BME280;43284;47.042;15.498;2023-04-28T04:59:50;97439.28;;;5.80;84.79
57442;BME280;43284;47.042;15.498;2023-04-28T05:02:16;97437.59;;;5.77;84.32
57442;BME280;43284;47.042;15.498;2023-04-28T05:04:41;97438.50;;;5.76;83.66
57442;BME280;43284;47.042;15.498;2023-04-28T05:07:07;97434.94;;;5.80;83.66
57442;BME280;43284;47.042;15.498;2023-04-28T05:09:32;97433.88;;;5.87;83.73
57442;BME280;43284;47.042;15.498;2023-04-28T05:11:58;97439.06;;;5.89;83.61
57442;BME280;43284;47.042;15.498;2023-04-28T05:14:24;97438.06;;;5.94;84.71
57442;BME280;43284;47.042;15.498;2023-04-28T05:16:49;97440.50;;;6.01;83.46
57442;BME280;43284;47.042;15.498;2023-04-28T05:19:15;97442.03;;;6.08;84.37
57442;BME280;43284;47.042;15.498;2023-04-28T05:21:41;97439.41;;;6.09;83.87
57442;BME280;43284;47.042;15.498;2023-04-28T05:24:06;97437.47;;;6.17;84.92
57442;BME280;43284;47.042;15.498;2023-04-28T05:26:32;97440.63;;;6.29;85.15
57442;BME280;43284;47.042;15.498;2023-04-28T05:28:57;97421.31;;;6.39;85.70
57442;BME280;43284;47.042;15.498;2023-04-28T05:31:23;97423.63;;;6.50;85.72
57442;BME280;43284;47.042;15.498;2023-04-28T05:33:48;97417.31;;;6.58;85.02
57442;BME280;43284;47.042;15.498;2023-04-28T05:36:14;97422.31;;;6.65;84.50
57442;BME280;43284;47.042;15.498;2023-04-28T05:38:42;97420.34;;;6.73;83.96
57442;BME280;43284;47.042;15.498;2023-04-28T05:41:08;97419.22;;;6.81;83.40
57442;BME280;43284;47.042;15.498;2023-04-28T05:43:33;97418.94;;;6.91;82.80
57442;BME280;43284;47.042;15.498;2023-04-28T05:45:59;97422.13;;;7.00;82.51
57442;BME280;43284;47.042;15.498;2023-04-28T05:48:25;97426.16;;;7.11;82.21
57442;BME280;43284;47.042;15.498;2023-04-28T05:50:51;97420.69;;;7.20;82.28
57442;BME280;43284;47.042;15.498;2023-04-28T05:53:16;97416.88;;;7.30;81.83
57442;BME280;43284;47.042;15.498;2023-04-28T05:55:42;97414.84;;;7.40;81.04
57442;BME280;43284;47.042;15.498;2023-04-28T05:58:07;97416.34;;;7.47;78.44
57442;BME280;43284;47.042;15.498;2023-04-28T06:00:33;97419.56;;;7.55;77.89
57442;BME280;43284;47.042;15.498;2023-04-28T06:02:59;97414.06;;;7.64;76.95
57442;BME280;43284;47.042;15.498;2023-04-28T06:05:25;97411.22;;;7.72;75.95
57442;BME280;43284;47.042;15.498;2023-04-28T06:07:50;97408.34;;;7.80;75.28
57442;BME280;43284;47.042;15.498;2023-04-28T06:10:16;97408.03;;;7.89;74.88
57442;BME280;43284;47.042;15.498;2023-04-28T06:12:41;97406.81;;;7.99;74.98
57442;BME280;43284;47.042;15.498;2023-04-28T06:15:07;97403.88;;;8.09;74.26
57442;BME280;43284;47.042;15.498;2023-04-28T06:17:33;97401.78;;;8.20;74.37
57442;BME280;43284;47.042;15.498;2023-04-28T06:19:58;97406.66;;;8.29;74.28
57442;BME280;43284;47.042;15.498;2023-04-28T06:22:24;97410.63;;;8.39;73.85
57442;BME280;43284;47.042;15.498;2023-04-28T06:24:50;97416.44;;;8.48;72.42
57442;BME280;43284;47.042;15.498;2023-04-28T06:27:16;97423.19;;;8.53;70.02
57442;BME280;43284;47.042;15.498;2023-04-28T06:29:41;97426.44;;;8.60;69.13
57442;BME280;43284;47.042;15.498;2023-04-28T06:32:07;97423.69;;;8.63;65.56
57442;BME280;43284;47.042;15.498;2023-04-28T06:34:33;97418.22;;;8.71;66.49
57442;BME280;43284;47.042;15.498;2023-04-28T06:36:59;97414.34;;;8.81;66.77
57442;BME280;43284;47.042;15.498;2023-04-28T06:39:25;97418.44;;;8.88;67.08
57442;BME280;43284;47.042;15.498;2023-04-28T06:41:51;97406.88;;;8.95;66.60
57442;BME280;43284;47.042;15.498;2023-04-28T06:44:16;97403.09;;;9.02;67.00
57442;BME280;43284;47.042;15.498;2023-04-28T06:46:42;97400.13;;;9.12;65.97
57442;BME280;43284;47.042;15.498;2023-04-28T06:49:08;97404.09;;;9.22;65.74
57442;BME280;43284;47.042;15.498;2023-04-28T06:51:33;97402.88;;;9.31;64.36
57442;BME280;43284;47.042;15.498;2023-04-28T06:53:59;97406.88;;;9.39;63.92
57442;BME280;43284;47.042;15.498;2023-04-28T06:56:25;97413.56;;;9.46;62.58
57442;BME280;43284;47.042;15.498;2023-04-28T06:58:51;97400.03;;;9.59;62.33
57442;BME280;43284;47.042;15.498;2023-04-28T07:01:17;97404.75;;;9.71;63.20
57442;BME280;43284;47.042;15.498;2023-04-28T07:03:42;97402.84;;;9.75;61.16
57442;BME280;43284;47.042;15.498;2023-04-28T07:06:08;97409.25;;;9.88;63.27
57442;BME280;43284;47.042;15.498;2023-04-28T07:08:34;97401.94;;;9.96;62.73
57442;BME280;43284;47.042;15.498;2023-04-28T07:11:01;97396.47;;;10.02;62.46
57442;BME280;43284;47.042;15.498;2023-04-28T07:13:31;97396.28;;;10.07;62.26
57442;BME280;43284;47.042;15.498;2023-04-28T07:15:56;97394.97;;;10.17;62.46
57442;BME280;43284;47.042;15.498;2023-04-28T07:18:22;97394.03;;;10.18;60.65
57442;BME280;43284;47.042;15.498;2023-04-28T07:20:48;97397.19;;;10.26;61.72
57442;BME280;43284;47.042;15.498;2023-04-28T07:23:13;97398.72;;;10.32;60.11
57442;BME280;43284;47.042;15.498;2023-04-28T07:25:39;97385.56;;;10.34;60.53
57442;BME280;43284;47.042;15.498;2023-04-28T07:28:06;97385.09;;;10.44;61.33
57442;BME280;43284;47.042;15.498;2023-04-28T07:30:32;97385.16;;;10.43;61.28
57442;BME280;43284;47.042;15.498;2023-04-28T07:32:58;97384.00;;;10.50;60.08
57442;BME280;43284;47.042;15.498;2023-04-28T07:35:24;97381.59;;;10.45;59.51
57442;BME280;43284;47.042;15.498;2023-04-28T07:37:50;97375.78;;;10.58;60.07
57442;BME280;43284;47.042;15.498;2023-04-28T07:40:15;97370.72;;;10.55;58.16
57442;BME280;43284;47.042;15.498;2023-04-28T07:42:41;97366.00;;;10.63;58.43
57442;BME280;43284;47.042;15.498;2023-04-28T07:45:07;97367.41;;;10.70;58.42
57442;BME280;43284;47.042;15.498;2023-04-28T07:47:33;97370.22;;;10.84;58.24
57442;BME280;43284;47.042;15.498;2023-04-28T07:49:59;97368.44;;;11.04;55.56
57442;BME280;43284;47.042;15.498;2023-04-28T07:52:29;97364.75;;;11.08;56.23
57442;BME280;43284;47.042;15.498;2023-04-28T07:54:54;97367.47;;;11.06;57.57
57442;BME280;43284;47.042;15.498;2023-04-28T07:57:20;97360.38;;;11.08;56.93
57442;BME280;43284;47.042;15.498;2023-04-28T07:59:45;97371.47;;;11.13;56.95
57442;BME280;43284;47.042;15.498;2023-04-28T08:02:11;97364.91;;;11.05;55.88
57442;BME280;43284;47.042;15.498;2023-04-28T08:04:38;97361.69;;;11.17;58.35
57442;BME280;43284;47.042;15.498;2023-04-28T08:07:04;97355.41;;;11.21;58.46
57442;BME280;43284;47.042;15.498;2023-04-28T08:09:29;97358.00;;;11.21;58.61
57442;BME280;43284;47.042;15.498;2023-04-28T08:11:55;97343.81;;;11.27;55.90
57442;BME280;43284;47.042;15.498;2023-04-28T08:14:20;97367.19;;;11.30;57.22
57442;BME280;43284;47.042;15.498;2023-04-28T08:16:46;97372.38;;;11.31;58.63
57442;BME280;43284;47.042;15.498;2023-04-28T08:19:13;97374.81;;;11.34;57.77
57442;BME280;43284;47.042;15.498;2023-04-28T08:21:38;97368.63;;;11.37;57.82
57442;BME280;43284;47.042;15.498;2023-04-28T08:24:04;97368.25;;;11.26;58.21
57442;BME280;43284;47.042;15.498;2023-04-28T08:26:30;97364.44;;;11.33;58.20
57442;BME280;43284;47.042;15.498;2023-04-28T08:28:55;97360.84;;;11.17;56.63
57442;BME280;43284;47.042;15.498;2023-04-28T08:31:21;97362.56;;;11.18;58.44
57442;BME280;43284;47.042;15.498;2023-04-28T08:33:46;97354.50;;;11.22;58.22
57442;BME280;43284;47.042;15.498;2023-04-28T08:36:15;97354.72;;;11.18;57.03
57442;BME280;43284;47.042;15.498;2023-04-28T08:38:42;97360.34;;;11.27;58.26
57442;BME280;43284;47.042;15.498;2023-04-28T08:41:08;97359.78;;;11.21;57.06
57442;BME280;43284;47.042;15.498;2023-04-28T08:43:37;97359.19;;;11.16;58.00
57442;BME280;43284;47.042;15.498;2023-04-28T08:46:06;97359.63;;;11.06;57.71
57442;BME280;43284;47.042;15.498;2023-04-28T08:48:39;97357.41;;;11.16;58.33
57442;BME280;43284;47.042;15.498;2023-04-28T08:51:06;97348.47;;;11.20;58.68
57442;BME280;43284;47.042;15.498;2023-04-28T08:53:36;97347.31;;;11.26;59.15
57442;BME280;43284;47.042;15.498;2023-04-28T08:56:06;97343.75;;;11.28;59.42
57442;BME280;43284;47.042;15.498;2023-04-28T08:58:34;97330.50;;;11.31;58.93
57442;BME280;43284;47.042;15.498;2023-04-28T09:01:01;97340.88;;;11.33;58.62
57442;BME280;43284;47.042;15.498;2023-04-28T09:03:29;97340.78;;;11.34;58.49
57442;BME280;43284;47.042;15.498;2023-04-28T09:05:54;97351.38;;;11.33;59.87
57442;BME280;43284;47.042;15.498;2023-04-28T09:08:20;97342.50;;;11.36;59.77
57442;BME280;43284;47.042;15.498;2023-04-28T09:10:45;97348.34;;;11.41;57.97
57442;BME280;43284;47.042;15.498;2023-04-28T09:13:23;97354.28;;;11.44;57.50
57442;BME280;43284;47.042;15.498;2023-04-28T09:15:49;97358.47;;;11.48;57.94
57442;BME280;43284;47.042;15.498;2023-04-28T09:18:15;97350.63;;;11.48;60.31
57442;BME280;43284;47.042;15.498;2023-04-28T09:20:41;97343.44;;;11.52;60.41
57442;BME280;43284;47.042;15.498;2023-04-28T09:23:20;97350.63;;;11.48;61.51
57442;BME280;43284;47.042;15.498;2023-04-28T09:26:06;97351.69;;;11.44;60.37
57442;BME280;43284;47.042;15.498;2023-04-28T09:28:33;97358.47;;;11.48;58.90
57442;BME280;43284;47.042;15.498;2023-04-28T09:31:00;97355.22;;;11.61;60.83
57442;BME280;43284;47.042;15.498;2023-04-28T09:33:28;97358.31;;;11.69;60.50
57442;BME280;43284;47.042;15.498;2023-04-28T09:35:54;97349.09;;;11.62;57.88
57442;BME280;43284;47.042;15.498;2023-04-28T09:38:21;97344.09;;;11.74;58.57
57442;BME280;43284;47.042;15.498;2023-04-28T09:40:52;97337.22;;;11.89;58.75
57442;BME280;43284;47.042;15.498;2023-04-28T09:43:38;97336.22;;;12.09;57.90
57442;BME280;43284;47.042;15.498;2023-04-28T09:46:04;97330.25;;;12.23;58.63
57442;BME280;43284;47.042;15.498;2023-04-28T09:48:31;97324.69;;;12.29;59.72
57442;BME280;43284;47.042;15.498;2023-04-28T09:50:58;97326.91;;;12.37;58.71
57442;BME280;43284;47.042;15.498;2023-04-28T09:53:24;97328.19;;;12.46;59.70
57442;BME280;43284;47.042;15.498;2023-04-28T09:55:54;97318.47;;;12.48;58.10
57442;BME280;43284;47.042;15.498;2023-04-28T09:58:22;97319.06;;;12.53;59.29
57442;BME280;43284;47.042;15.498;2023-04-28T10:00:53;97310.84;;;12.59;58.21
57442;BME280;43284;47.042;15.498;2023-04-28T10:03:24;97311.53;;;12.63;58.57
57442;BME280;43284;47.042;15.498;2023-04-28T10:05:50;97315.69;;;12.67;55.70
57442;BME280;43284;47.042;15.498;2023-04-28T10:08:18;97314.75;;;12.52;56.65
57442;BME280;43284;47.042;15.498;2023-04-28T10:10:45;97305.34;;;12.64;58.45
57442;BME280;43284;47.042;15.498;2023-04-28T10:13:10;97301.31;;;12.74;58.62
57442;BME280;43284;47.042;15.498;2023-04-28T10:15:36;97300.22;;;12.78;57.72
57442;BME280;43284;47.042;15.498;2023-04-28T10:18:04;97299.03;;;12.84;57.63
57442;BME280;43284;47.042;15.498;2023-04-28T10:20:30;97297.91;;;12.88;56.58
57442;BME280;43284;47.042;15.498;2023-04-28T10:23:29;97304.94;;;12.87;55.68
57442;BME280;43284;47.042;15.498;2023-04-28T10:25:58;97294.97;;;12.78;55.04
57442;BME280;43284;47.042;15.498;2023-04-28T10:28:25;97289.81;;;12.92;55.62
57442;BME280;43284;47.042;15.498;2023-04-28T10:31:11;97283.19;;;13.01;56.18
57442;BME280;43284;47.042;15.498;2023-04-28T10:33:38;97277.25;;;13.13;55.15
57442;BME280;43284;47.042;15.498;2023-04-28T10:36:04;97272.84;;;13.30;53.69
57442;BME280;43284;47.042;15.498;2023-04-28T10:38:30;97268.75;;;13.24;52.93
57442;BME280;43284;47.042;15.498;2023-04-28T10:40:56;97253.84;;;13.25;54.62
57442;BME280;43284;47.042;15.498;2023-04-28T10:59:01;97232.28;;;13.50;55.31
57442;BME280;43284;47.042;15.498;2023-04-28T11:01:32;97222.19;;;13.28;53.25
57442;BME280;43284;47.042;15.498;2023-04-28T11:04:08;97216.88;;;13.13;53.58
57442;BME280;43284;47.042;15.498;2023-04-28T11:06:46;97214.50;;;13.09;56.23
57442;BME280;43284;47.042;15.498;2023-04-28T11:16:58;97217.84;;;13.43;53.66
57442;BME280;43284;47.042;15.498;2023-04-28T11:19:27;97211.69;;;13.58;53.33
57442;BME280;43284;47.042;15.498;2023-04-28T11:21:57;97200.88;;;13.63;52.76
57442;BME280;43284;47.042;15.498;2023-04-28T11:24:24;97200.06;;;13.91;54.86
57442;BME280;43284;47.042;15.498;2023-04-28T11:26:50;97194.31;;;13.98;54.08
57442;BME280;43284;47.042;15.498;2023-04-28T11:29:17;97196.06;;;14.12;55.11
57442;BME280;43284;47.042;15.498;2023-04-28T11:31:49;97195.81;;;14.17;53.86
57442;BME280;43284;47.042;15.498;2023-04-28T11:34:18;97190.19;;;14.09;51.17
57442;BME280;43284;47.042;15.498;2023-04-28T11:36:44;97182.47;;;14.34;53.50
57442;BME280;43284;47.042;15.498;2023-04-28T11:39:11;97176.09;;;14.51;52.57
57442;BME280;43284;47.042;15.498;2023-04-28T11:41:39;97176.00;;;14.67;54.09
57442;BME280;43284;47.042;15.498;2023-04-28T11:44:18;97170.97;;;14.77;53.39
57442;BME280;43284;47.042;15.498;2023-04-28T11:46:55;97162.50;;;14.59;51.50
57442;BME280;43284;47.042;15.498;2023-04-28T11:49:25;97165.75;;;14.90;52.87
57442;BME280;43284;47.042;15.498;2023-04-28T11:51:55;97162.72;;;14.96;51.98
57442;BME280;43284;47.042;15.498;2023-04-28T11:54:25;97158.03;;;14.87;51.37
57442;BME280;43284;47.042;15.498;2023-04-28T11:56:53;97154.38;;;15.02;49.53
57442;BME280;43284;47.042;15.498;2023-04-28T11:59:23;97143.69;;;15.18;50.07
57442;BME280;43284;47.042;15.498;2023-04-28T12:01:52;97150.03;;;15.15;52.08
57442;BME280;43284;47.042;15.498;2023-04-28T12:09:32;97148.72;;;14.68;51.31
57442;BME280;43284;47.042;15.498;2023-04-28T12:12:05;97148.81;;;14.94;52.49
57442;BME280;43284;47.042;15.498;2023-04-28T12:14:33;97148.72;;;14.68;52.38
57442;BME280;43284;47.042;15.498;2023-04-28T12:19:51;97143.97;;;14.60;52.07
57442;BME280;43284;47.042;15.498;2023-04-28T12:22:16;97142.34;;;14.72;51.84
57442;BME280;43284;47.042;15.498;2023-04-28T12:24:42;97146.59;;;14.60;51.68
57442;BME280;43284;47.042;15.498;2023-04-28T12:27:14;97147.38;;;14.48;52.27
57442;BME280;43284;47.042;15.498;2023-04-28T12:29:41;97142.72;;;14.66;51.92
57442;BME280;43284;47.042;15.498;2023-04-28T12:32:09;97138.66;;;14.48;53.07
57442;BME280;43284;47.042;15.498;2023-04-28T12:34:36;97135.38;;;14.71;53.49
57442;BME280;43284;47.042;15.498;2023-04-28T12:37:03;97132.28;;;14.65;52.65
57442;BME280;43284;47.042;15.498;2023-04-28T12:39:31;97135.97;;;14.62;53.41
57442;BME280;43284;47.042;15.498;2023-04-28T12:41:57;97138.47;;;14.36;52.92
57442;BME280;43284;47.042;15.498;2023-04-28T12:44:27;97137.63;;;14.36;53.24
57442;BME280;43284;47.042;15.498;2023-04-28T12:46:57;97137.47;;;14.52;52.83
57442;BME280;43284;47.042;15.498;2023-04-28T12:49:23;97135.13;;;14.61;54.51
57442;BME280;43284;47.042;15.498;2023-04-28T12:51:48;97131.84;;;14.16;52.79
57442;BME280;43284;47.042;15.498;2023-04-28T12:54:14;97129.22;;;14.16;54.31
57442;BME280;43284;47.042;15.498;2023-04-28T12:56:40;97123.19;;;14.29;53.78
57442;BME280;43284;47.042;15.498;2023-04-28T12:59:05;97119.88;;;14.39;54.58
57442;BME280;43284;47.042;15.498;2023-04-28T13:01:31;97117.03;;;14.42;53.64
57442;BME280;43284;47.042;15.498;2023-04-28T13:03:56;97110.59;;;14.34;53.59
57442;BME280;43284;47.042;15.498;2023-04-28T13:06:22;97108.94;;;14.18;53.33
57442;BME280;43284;47.042;15.498;2023-04-28T13:08:48;97100.19;;;14.32;52.75
57442;BME280;43284;47.042;15.498;2023-04-28T13:11:13;97106.63;;;14.41;53.28
57442;BME280;43284;47.042;15.498;2023-04-28T13:13:38;97103.72;;;14.46;53.36
57442;BME280;43284;47.042;15.498;2023-04-28T13:16:05;97090.81;;;14.55;53.60
57442;BME280;43284;47.042;15.498;2023-04-28T13:18:30;97093.13;;;14.60;53.88
57442;BME280;43284;47.042;15.498;2023-04-28T13:20:56;97092.56;;;14.28;53.78
57442;BME280;43284;47.042;15.498;2023-04-28T13:23:22;97088.41;;;14.38;53.96